createdAt,value
2017-04-21T00:00:21.941Z,6.20
2017-04-21T00:01:21.141Z,6.30
2017-04-21T00:02:20.327Z,6.30
2017-04-21T00:03:19.520Z,6.30
2017-04-21T00:04:18.720Z,6.30
2017-04-21T00:05:17.920Z,6.30
2017-04-21T00:06:17.089Z,6.20
2017-04-21T00:07:16.260Z,6.20
2017-04-21T00:08:15.445Z,6.20
2017-04-21T00:09:15.568Z,6.20
2017-04-21T00:10:14.739Z,6.20
2017-04-21T00:11:15.408Z,6.20
2017-04-21T00:12:14.593Z,6.20
2017-04-21T00:13:13.833Z,6.30
2017-04-21T00:14:13.002Z,6.20
2017-04-21T00:15:12.184Z,6.20
2017-04-21T00:16:11.366Z,6.20
2017-04-21T00:17:10.592Z,6.30
2017-04-21T00:18:10.524Z,6.20
2017-04-21T00:19:09.687Z,6.20
2017-04-21T00:20:09.005Z,6.30
2017-04-21T00:21:08.296Z,6.20
2017-04-21T00:22:08.320Z,6.20
2017-04-21T00:23:07.565Z,6.20
2017-04-21T00:24:06.758Z,6.30
2017-04-21T00:25:05.936Z,6.30
2017-04-21T00:26:05.115Z,6.30
2017-04-21T00:27:05.048Z,6.20
2017-04-21T00:28:04.240Z,6.20
2017-04-21T00:29:03.465Z,6.20
2017-04-21T00:30:02.611Z,6.30
2017-04-21T00:31:01.848Z,6.30
2017-04-21T00:32:01.065Z,6.30
2017-04-21T00:33:00.244Z,6.30
2017-04-21T00:33:59.434Z,6.40
2017-04-21T00:34:59.359Z,6.40
2017-04-21T00:35:58.557Z,6.50
2017-04-21T00:36:57.728Z,6.40
2017-04-21T00:37:56.916Z,6.50
2017-04-21T00:38:56.175Z,6.50
2017-04-21T00:39:55.352Z,6.60
2017-04-21T00:40:54.898Z,6.60
2017-04-21T00:41:54.220Z,6.70
2017-04-21T00:42:53.435Z,6.70
2017-04-21T00:43:52.624Z,6.70
2017-04-21T00:44:51.812Z,6.80
2017-04-21T00:45:51.023Z,6.80
2017-04-21T00:46:50.250Z,6.70
2017-04-21T00:47:49.925Z,6.80
2017-04-21T00:48:49.110Z,6.80
2017-04-21T00:49:48.348Z,6.70
2017-04-21T00:50:47.496Z,6.80
2017-04-21T00:51:46.664Z,6.80
2017-04-21T00:52:45.859Z,6.80
2017-04-21T00:53:45.379Z,6.90
2017-04-21T00:54:44.575Z,6.90
2017-04-21T00:55:43.756Z,6.80
2017-04-21T00:56:42.942Z,6.90
2017-04-21T00:57:42.869Z,6.90
2017-04-21T00:58:42.066Z,6.90
2017-04-21T00:59:41.308Z,6.90
2017-04-21T01:00:40.492Z,6.90
2017-04-21T01:01:39.697Z,7.00
2017-04-21T01:02:38.890Z,6.90
2017-04-21T01:03:38.777Z,6.90
2017-04-21T01:04:37.974Z,7.00
2017-04-21T01:05:37.195Z,7.00
2017-04-21T01:06:36.333Z,7.00
2017-04-21T01:07:35.638Z,7.00
2017-04-21T01:08:35.897Z,7.00
2017-04-21T01:09:35.154Z,7.00
2017-04-21T01:10:34.328Z,7.00
2017-04-21T01:11:33.567Z,7.10
2017-04-21T01:12:33.001Z,7.10
2017-04-21T01:13:32.173Z,7.10
2017-04-21T01:14:31.621Z,7.10
2017-04-21T01:15:30.853Z,7.10
2017-04-21T01:16:30.066Z,7.10
2017-04-21T01:17:29.257Z,7.20
2017-04-21T01:18:28.553Z,7.20
2017-04-21T01:19:27.735Z,7.20
2017-04-21T01:20:26.959Z,7.20
2017-04-21T01:21:26.247Z,7.20
2017-04-21T01:22:26.175Z,7.20
2017-04-21T01:23:25.521Z,7.30
2017-04-21T01:24:24.710Z,7.30
2017-04-21T01:25:23.881Z,7.30
2017-04-21T01:26:23.080Z,7.30
2017-04-21T01:27:22.289Z,7.30
2017-04-21T01:28:21.456Z,7.30
2017-04-21T01:29:20.757Z,7.30
2017-04-21T01:30:19.936Z,7.30
2017-04-21T01:31:19.160Z,7.30
2017-04-21T01:32:18.383Z,7.30
2017-04-21T01:33:17.532Z,7.30
2017-04-21T01:34:16.735Z,7.40
2017-04-21T01:35:15.934Z,7.30
2017-04-21T01:36:15.117Z,7.40
2017-04-21T01:37:14.369Z,7.40
2017-04-21T01:38:14.296Z,7.30
2017-04-21T01:39:13.568Z,7.40
2017-04-21T01:40:12.799Z,7.40
2017-04-21T01:41:12.109Z,7.40
2017-04-21T01:42:11.340Z,7.50
2017-04-21T01:43:09.837Z,7.40
2017-04-21T01:44:09.034Z,7.50
2017-04-21T01:45:08.236Z,7.50
2017-04-21T01:46:07.422Z,7.50
2017-04-21T01:47:06.657Z,7.50
2017-04-21T01:48:06.652Z,7.40
2017-04-21T01:49:06.623Z,7.50
2017-04-21T01:50:05.810Z,7.50
2017-04-21T01:51:04.976Z,7.50
2017-04-21T01:52:04.139Z,7.50
2017-04-21T01:53:03.343Z,7.50
2017-04-21T01:54:02.629Z,7.60
2017-04-21T01:55:01.765Z,7.50
2017-04-21T01:56:00.960Z,7.50
2017-04-21T01:57:00.137Z,7.50
2017-04-21T01:57:59.311Z,7.50
2017-04-21T01:58:58.487Z,7.50
2017-04-21T01:59:58.435Z,7.50
2017-04-21T02:00:58.476Z,7.50
2017-04-21T02:01:57.641Z,7.60
2017-04-21T02:02:57.575Z,7.60
2017-04-21T02:03:56.845Z,7.60
2017-04-21T02:04:56.079Z,7.60
2017-04-21T02:05:55.276Z,7.60
2017-04-21T02:06:54.459Z,7.60
2017-04-21T02:07:53.635Z,7.60
2017-04-21T02:08:52.817Z,7.60
2017-04-21T02:09:53.111Z,7.50
2017-04-21T02:10:52.330Z,7.50
2017-04-21T02:11:52.256Z,7.50
2017-04-21T02:12:51.444Z,7.60
2017-04-21T02:13:50.667Z,7.60
2017-04-21T02:14:49.860Z,7.60
2017-04-21T02:15:49.237Z,7.60
2017-04-21T02:16:48.428Z,7.60
2017-04-21T02:17:47.704Z,7.60
2017-04-21T02:18:46.925Z,7.60
2017-04-21T02:19:46.094Z,7.70
2017-04-21T02:20:45.272Z,7.70
2017-04-21T02:21:44.497Z,7.60
2017-04-21T02:22:43.694Z,7.60
2017-04-21T02:23:42.960Z,7.60
2017-04-21T02:24:42.148Z,7.60
2017-04-21T02:25:41.335Z,7.60
2017-04-21T02:26:40.550Z,7.60
2017-04-21T02:27:39.864Z,7.60
2017-04-21T02:28:39.033Z,7.70
2017-04-21T02:29:38.206Z,7.70
2017-04-21T02:30:37.428Z,7.70
2017-04-21T02:31:36.644Z,7.70
2017-04-21T02:32:35.868Z,7.70
2017-04-21T02:33:35.141Z,7.70
2017-04-21T02:34:34.328Z,7.70
2017-04-21T02:35:33.493Z,7.70
2017-04-21T02:36:32.699Z,7.80
2017-04-21T02:37:31.887Z,7.70
2017-04-21T02:38:31.088Z,7.80
2017-04-21T02:39:30.243Z,7.80
2017-04-21T02:40:29.453Z,7.70
2017-04-21T02:41:28.664Z,7.70
2017-04-21T02:42:27.872Z,7.70
2017-04-21T02:43:27.047Z,7.70
2017-04-21T02:44:26.315Z,7.70
2017-04-21T02:45:25.552Z,7.70
2017-04-21T02:46:24.740Z,7.70
2017-04-21T02:47:23.936Z,7.80
2017-04-21T02:48:23.099Z,7.80
2017-04-21T02:49:22.228Z,7.80
2017-04-21T02:50:21.420Z,7.80
2017-04-21T02:51:20.986Z,7.80
2017-04-21T02:52:21.197Z,7.80
2017-04-21T02:53:21.092Z,7.70
2017-04-21T02:54:20.338Z,7.80
2017-04-21T02:55:19.559Z,7.80
2017-04-21T02:56:18.784Z,7.80
2017-04-21T02:57:18.008Z,7.80
2017-04-21T02:58:17.218Z,7.80
2017-04-21T02:59:16.423Z,7.80
2017-04-21T03:00:16.288Z,7.80
2017-04-21T03:01:16.437Z,7.80
2017-04-21T03:02:15.652Z,7.80
2017-04-21T03:03:14.987Z,7.80
2017-04-21T03:04:14.209Z,7.70
2017-04-21T03:05:13.521Z,7.70
2017-04-21T03:06:12.743Z,7.70
2017-04-21T03:07:11.936Z,7.70
2017-04-21T03:08:11.704Z,7.70
2017-04-21T03:09:10.979Z,7.70
2017-04-21T03:10:10.208Z,7.70
2017-04-21T03:11:09.413Z,7.70
2017-04-21T03:12:08.593Z,7.70
2017-04-21T03:13:08.919Z,7.70
2017-04-21T03:14:08.424Z,7.80
2017-04-21T03:15:07.700Z,7.80
2017-04-21T03:16:07.640Z,7.70
2017-04-21T03:17:07.573Z,7.70
2017-04-21T03:18:06.953Z,7.70
2017-04-21T03:19:06.148Z,7.70
2017-04-21T03:20:05.767Z,7.70
2017-04-21T03:21:04.930Z,7.70
2017-04-21T03:22:04.219Z,7.70
2017-04-21T03:23:03.403Z,7.70
2017-04-21T03:24:02.649Z,7.70
2017-04-21T03:25:01.838Z,7.70
2017-04-21T03:26:01.033Z,7.70
2017-04-21T03:27:00.292Z,7.70
2017-04-21T03:27:59.452Z,7.80
2017-04-21T03:28:58.683Z,7.80
2017-04-21T03:29:57.870Z,7.80
2017-04-21T03:30:57.080Z,7.80
2017-04-21T03:31:56.308Z,7.80
2017-04-21T03:32:55.504Z,7.80
2017-04-21T03:33:55.369Z,7.80
2017-04-21T03:34:54.610Z,7.80
2017-04-21T03:35:53.854Z,7.80
2017-04-21T03:36:53.317Z,7.80
2017-04-21T03:37:52.513Z,7.80
2017-04-21T03:38:55.524Z,7.80
2017-04-21T03:39:54.686Z,7.80
2017-04-21T03:40:53.890Z,7.80
2017-04-21T03:41:53.887Z,7.70
2017-04-21T03:42:59.836Z,7.80
2017-04-21T03:43:59.137Z,7.80
2017-04-21T03:44:58.313Z,7.90
2017-04-21T03:45:57.504Z,7.80
2017-04-21T03:46:56.671Z,7.90
2017-04-21T03:47:55.868Z,7.90
2017-04-21T03:48:57.165Z,7.90
2017-04-21T03:49:56.281Z,7.90
2017-04-21T03:50:56.309Z,7.80
2017-04-21T03:51:55.462Z,7.80
2017-04-21T03:52:54.670Z,7.90
2017-04-21T03:53:53.871Z,7.90
2017-04-21T03:54:53.220Z,7.90
2017-04-21T03:55:52.351Z,7.90
2017-04-21T03:56:51.468Z,7.90
2017-04-21T03:57:50.869Z,7.90
2017-04-21T03:58:50.016Z,7.80
2017-04-21T03:59:49.193Z,7.90
2017-04-21T04:00:48.408Z,7.90
2017-04-21T04:01:47.760Z,7.90
2017-04-21T04:02:46.985Z,7.90
2017-04-21T04:03:46.154Z,7.80
2017-04-21T04:04:45.492Z,7.80
2017-04-21T04:05:44.797Z,7.80
2017-04-21T04:06:43.968Z,7.70
2017-04-21T04:07:43.125Z,7.70
2017-04-21T04:08:42.329Z,7.70
2017-04-21T04:09:42.272Z,7.70
2017-04-21T04:10:41.477Z,7.70
2017-04-21T04:11:40.697Z,7.70
2017-04-21T04:12:39.877Z,7.60
2017-04-21T04:13:39.057Z,7.60
2017-04-21T04:14:38.314Z,7.70
2017-04-21T04:15:38.340Z,7.60
2017-04-21T04:16:37.506Z,7.60
2017-04-21T04:17:37.393Z,7.60
2017-04-21T04:18:36.548Z,7.70
2017-04-21T04:19:35.732Z,7.70
2017-04-21T04:20:34.912Z,7.70
2017-04-21T04:21:34.074Z,7.60
2017-04-21T04:22:33.665Z,7.60
2017-04-21T04:23:32.957Z,7.60
2017-04-21T04:24:32.205Z,7.60
2017-04-21T04:25:31.377Z,7.60
2017-04-21T04:26:30.556Z,7.70
2017-04-21T04:27:29.826Z,7.70
2017-04-21T04:28:29.028Z,7.70
2017-04-21T04:29:28.277Z,7.70
2017-04-21T04:30:27.434Z,7.70
2017-04-21T04:31:26.658Z,7.70
2017-04-21T04:32:25.803Z,7.70
2017-04-21T04:33:24.977Z,7.70
2017-04-21T04:34:24.209Z,7.70
2017-04-21T04:35:23.447Z,7.70
2017-04-21T04:36:22.623Z,7.70
2017-04-21T04:37:21.789Z,7.70
2017-04-21T04:38:21.103Z,7.70
2017-04-21T04:39:20.263Z,7.70
2017-04-21T04:40:19.480Z,7.70
2017-04-21T04:41:18.747Z,7.70
2017-04-21T04:42:17.904Z,7.80
2017-04-21T04:43:17.828Z,7.70
2017-04-21T04:44:17.015Z,7.80
2017-04-21T04:45:16.228Z,7.80
2017-04-21T04:46:15.780Z,7.80
2017-04-21T04:47:15.003Z,7.70
2017-04-21T04:48:14.334Z,7.80
2017-04-21T04:49:13.589Z,7.80
2017-04-21T04:50:12.775Z,7.80
2017-04-21T04:51:12.132Z,7.80
2017-04-21T04:52:11.297Z,7.80
2017-04-21T04:53:10.486Z,7.80
2017-04-21T04:54:09.949Z,7.80
2017-04-21T04:55:09.904Z,7.80
2017-04-21T04:56:09.136Z,7.90
2017-04-21T04:57:08.705Z,7.90
2017-04-21T04:58:07.881Z,7.90
2017-04-21T04:59:07.058Z,8.00
2017-04-21T05:00:06.931Z,7.90
2017-04-21T05:01:06.101Z,8.00
2017-04-21T05:02:05.288Z,8.00
2017-04-21T05:03:05.345Z,8.00
2017-04-21T05:04:05.298Z,8.00
2017-04-21T05:05:04.449Z,8.00
2017-04-21T05:06:03.626Z,8.00
2017-04-21T05:07:03.584Z,8.10
2017-04-21T05:08:02.826Z,8.10
2017-04-21T05:09:02.075Z,8.20
2017-04-21T05:10:01.234Z,8.20
2017-04-21T05:11:00.404Z,8.10
2017-04-21T05:11:59.537Z,8.10
2017-04-21T05:12:58.727Z,8.10
2017-04-21T05:13:58.286Z,8.20
2017-04-21T05:14:57.543Z,8.20
2017-04-21T05:15:56.785Z,8.20
2017-04-21T05:16:55.945Z,8.20
2017-04-21T05:17:55.213Z,8.20
2017-04-21T05:18:54.347Z,8.10
2017-04-21T05:19:54.541Z,8.10
2017-04-21T05:20:53.708Z,8.10
2017-04-21T05:21:52.911Z,8.20
2017-04-21T05:22:52.342Z,8.20
2017-04-21T05:23:51.601Z,8.10
2017-04-21T05:24:51.009Z,8.10
2017-04-21T05:25:50.189Z,8.10
2017-04-21T05:26:49.342Z,8.10
2017-04-21T05:27:48.536Z,8.20
2017-04-21T05:28:47.868Z,8.20
2017-04-21T05:29:47.109Z,8.30
2017-04-21T05:30:51.689Z,8.20
2017-04-21T05:31:50.978Z,8.30
2017-04-21T05:32:50.628Z,8.30
2017-04-21T05:33:49.849Z,8.30
2017-04-21T05:34:49.192Z,8.30
2017-04-21T05:35:48.504Z,8.30
2017-04-21T05:36:47.772Z,8.40
2017-04-21T05:37:46.962Z,8.30
2017-04-21T05:38:46.250Z,8.30
2017-04-21T05:39:45.478Z,8.30
2017-04-21T05:40:44.736Z,8.40
2017-04-21T05:41:43.877Z,8.40
2017-04-21T05:42:43.838Z,8.40
2017-04-21T05:43:43.013Z,8.40
2017-04-21T05:44:42.237Z,8.40
2017-04-21T05:45:41.417Z,8.40
2017-04-21T05:46:40.645Z,8.50
2017-04-21T05:47:39.990Z,8.50
2017-04-21T05:48:39.197Z,8.50
2017-04-21T05:49:38.386Z,8.50
2017-04-21T05:50:37.624Z,8.50
2017-04-21T05:51:37.210Z,8.50
2017-04-21T05:52:36.397Z,8.60
2017-04-21T05:53:35.600Z,8.50
2017-04-21T05:54:34.849Z,8.50
2017-04-21T05:55:34.022Z,8.50
2017-04-21T05:56:33.218Z,8.50
2017-04-21T05:57:33.244Z,8.50
2017-04-21T05:58:32.542Z,8.50
2017-04-21T05:59:31.998Z,8.50
2017-04-21T06:01:30.974Z,8.60
2017-04-21T06:02:30.162Z,8.60
2017-04-21T06:03:29.782Z,8.70
2017-04-21T06:04:29.714Z,8.70
2017-04-21T06:05:28.991Z,8.70
2017-04-21T06:06:28.216Z,8.70
2017-04-21T06:07:27.446Z,8.70
2017-04-21T06:08:29.568Z,8.80
2017-04-21T06:09:28.820Z,8.80
2017-04-21T06:10:28.008Z,8.80
2017-04-21T06:11:27.237Z,8.80
2017-04-21T06:12:26.450Z,8.90
2017-04-21T06:13:25.708Z,8.90
2017-04-21T06:14:24.913Z,8.90
2017-04-21T06:15:24.564Z,8.90
2017-04-21T06:16:24.470Z,8.90
2017-04-21T06:17:23.820Z,9.00
2017-04-21T06:18:23.518Z,8.90
2017-04-21T06:19:22.796Z,9.00
2017-04-21T06:20:22.339Z,9.00
2017-04-21T06:21:21.670Z,9.00
2017-04-21T06:22:20.940Z,9.10
2017-04-21T06:23:20.239Z,9.10
2017-04-21T06:24:19.490Z,9.00
2017-04-21T06:25:18.851Z,9.00
2017-04-21T06:26:18.854Z,8.90
2017-04-21T06:27:18.274Z,9.00
2017-04-21T06:28:17.941Z,9.00
2017-04-21T06:29:17.148Z,9.00
2017-04-21T06:30:17.152Z,9.00
2017-04-21T06:31:17.169Z,9.00
2017-04-21T06:32:16.391Z,9.10
2017-04-21T06:33:15.661Z,9.10
2017-04-21T06:34:15.681Z,9.10
2017-04-21T06:35:15.199Z,9.10
2017-04-21T06:36:14.562Z,9.10
2017-04-21T06:37:14.168Z,9.00
2017-04-21T06:38:13.654Z,9.00
2017-04-21T06:39:13.127Z,9.00
2017-04-21T06:40:13.057Z,9.10
2017-04-21T06:41:12.822Z,9.00
2017-04-21T06:42:12.998Z,9.00
2017-04-21T06:43:12.309Z,9.10
2017-04-21T06:44:12.432Z,9.00
2017-04-21T06:45:11.770Z,9.00
2017-04-21T06:46:11.239Z,9.00
2017-04-21T06:47:10.681Z,9.00
2017-04-21T06:48:10.116Z,9.10
2017-04-21T06:49:09.477Z,9.10
2017-04-21T06:50:09.439Z,9.10
2017-04-21T06:51:08.968Z,9.10
2017-04-21T06:52:08.607Z,9.10
2017-04-21T06:53:08.105Z,9.10
2017-04-21T06:54:07.409Z,9.10
2017-04-21T06:55:06.828Z,9.10
2017-04-21T06:56:06.189Z,9.00
2017-04-21T06:57:06.225Z,9.00
2017-04-21T06:58:06.065Z,9.10
2017-04-21T06:59:05.504Z,9.20
2017-04-21T07:00:05.935Z,9.20
2017-04-21T07:01:06.045Z,9.20
2017-04-21T07:02:05.327Z,9.40
2017-04-21T07:03:05.540Z,9.50
2017-04-21T07:04:05.864Z,9.70
2017-04-21T07:05:05.198Z,9.70
2017-04-21T07:06:05.122Z,9.80
2017-04-21T07:07:04.545Z,9.70
2017-04-21T07:08:04.544Z,9.70
2017-04-21T07:09:04.057Z,9.70
2017-04-21T07:10:04.173Z,9.70
2017-04-21T07:11:03.645Z,9.90
2017-04-21T07:12:02.905Z,9.90
2017-04-21T07:13:02.838Z,9.80
2017-04-21T07:14:02.097Z,9.80
2017-04-21T07:15:01.518Z,9.80
2017-04-21T07:16:01.682Z,9.80
2017-04-21T07:17:01.050Z,9.90
2017-04-21T07:18:05.091Z,9.90
2017-04-21T07:19:04.424Z,9.90
2017-04-21T07:20:03.757Z,10.10
2017-04-21T07:21:03.206Z,10.20
2017-04-21T07:22:02.786Z,10.20
2017-04-21T07:23:02.098Z,10.20
2017-04-21T07:24:01.977Z,10.20
2017-04-21T07:26:01.077Z,10.00
2017-04-21T07:27:00.471Z,10.00
2017-04-21T07:28:00.354Z,10.00
2017-04-21T07:28:59.584Z,10.10
2017-04-21T07:29:58.913Z,10.10
2017-04-21T07:30:58.235Z,10.10
2017-04-21T07:31:57.509Z,10.20
2017-04-21T07:32:56.776Z,10.20
2017-04-21T07:33:56.694Z,10.30
2017-04-21T07:34:55.888Z,10.50
2017-04-21T07:36:54.348Z,10.80
2017-04-21T07:37:54.336Z,10.70
2017-04-21T07:39:52.787Z,10.80
2017-04-21T07:40:52.024Z,10.90
2017-04-21T07:41:51.217Z,10.90
2017-04-21T07:42:50.437Z,11.00
2017-04-21T07:43:49.604Z,10.90
2017-04-21T07:44:49.573Z,10.70
2017-04-21T07:45:48.749Z,10.90
2017-04-21T07:46:47.943Z,11.00
2017-04-21T07:47:47.313Z,10.90
2017-04-21T07:48:46.524Z,10.90
2017-04-21T07:49:45.701Z,11.00
2017-04-21T07:50:44.835Z,11.20
2017-04-21T07:51:44.046Z,11.30
2017-04-21T07:52:43.279Z,11.40
2017-04-21T07:53:42.469Z,11.40
2017-04-21T07:54:42.449Z,11.40
2017-04-21T07:55:41.616Z,11.40
2017-04-21T07:56:40.826Z,11.50
2017-04-21T07:57:40.050Z,11.50
2017-04-21T07:58:39.576Z,11.50
2017-04-21T07:59:38.876Z,11.40
2017-04-21T08:00:38.080Z,11.40
2017-04-21T08:01:37.233Z,11.30
2017-04-21T08:02:36.434Z,11.30
2017-04-21T08:03:35.630Z,11.30
2017-04-21T08:04:34.874Z,11.40
2017-04-21T08:05:34.078Z,11.50
2017-04-21T08:06:33.244Z,11.50
2017-04-21T08:07:33.197Z,11.50
2017-04-21T08:08:33.144Z,11.60
2017-04-21T08:09:32.362Z,11.70
2017-04-21T08:10:32.086Z,11.90
2017-04-21T08:11:31.293Z,12.10
2017-04-21T08:12:30.413Z,12.10
2017-04-21T08:14:29.095Z,12.10
2017-04-21T08:15:28.255Z,12.20
2017-04-21T08:16:27.462Z,12.10
2017-04-21T08:17:26.724Z,12.10
2017-04-21T08:18:25.889Z,12.20
2017-04-21T08:19:25.071Z,12.40
2017-04-21T08:20:24.252Z,12.50
2017-04-21T08:21:23.469Z,12.40
2017-04-21T08:22:22.832Z,12.50
2017-04-21T08:23:22.030Z,12.50
2017-04-21T08:24:21.224Z,12.50
2017-04-21T08:25:20.387Z,12.50
2017-04-21T08:26:19.622Z,12.40
2017-04-21T08:27:18.797Z,12.40
2017-04-21T08:28:18.353Z,12.40
2017-04-21T08:29:17.544Z,12.40
2017-04-21T08:30:16.722Z,12.30
2017-04-21T08:31:15.912Z,12.40
2017-04-21T08:32:15.096Z,12.50
2017-04-21T08:33:14.309Z,12.40
2017-04-21T08:34:13.581Z,12.50
2017-04-21T08:35:12.826Z,12.40
2017-04-21T08:36:12.706Z,12.40
2017-04-21T08:37:12.471Z,12.50
2017-04-21T08:38:11.743Z,12.60
2017-04-21T08:39:10.911Z,12.40
2017-04-21T08:40:10.891Z,12.30
2017-04-21T08:41:10.181Z,12.40
2017-04-21T08:42:09.359Z,12.50
2017-04-21T08:43:08.565Z,12.50
2017-04-21T08:44:07.734Z,12.40
2017-04-21T08:45:06.895Z,12.40
2017-04-21T08:46:06.065Z,12.40
2017-04-21T08:47:05.255Z,12.40
2017-04-21T08:48:04.384Z,12.50
2017-04-21T08:49:03.618Z,12.50
2017-04-21T08:50:02.812Z,12.50
2017-04-21T08:51:01.974Z,12.50
2017-04-21T08:52:01.096Z,12.50
2017-04-21T08:53:00.328Z,12.40
2017-04-21T08:53:59.513Z,12.40
2017-04-21T08:54:58.821Z,12.20
2017-04-21T08:55:58.043Z,12.20
2017-04-21T08:56:57.193Z,12.20
2017-04-21T08:57:56.563Z,12.20
2017-04-21T08:58:55.782Z,12.20
2017-04-21T08:59:55.657Z,12.30
2017-04-21T09:00:54.797Z,12.60
2017-04-21T09:01:53.961Z,12.70
2017-04-21T09:02:53.900Z,12.70
2017-04-21T09:03:53.233Z,12.80
2017-04-21T09:04:52.431Z,12.80
2017-04-21T09:05:51.641Z,12.80
2017-04-21T09:06:51.557Z,12.80
2017-04-21T09:07:50.754Z,13.00
2017-04-21T09:08:49.961Z,13.20
2017-04-21T09:09:49.205Z,13.40
2017-04-21T09:10:48.394Z,13.30
2017-04-21T09:11:47.563Z,13.30
2017-04-21T09:12:46.775Z,13.30
2017-04-21T09:13:45.962Z,13.40
2017-04-21T09:14:45.173Z,13.60
2017-04-21T09:15:44.478Z,13.70
2017-04-21T09:16:43.700Z,13.90
2017-04-21T09:17:42.885Z,14.00
2017-04-21T09:18:42.162Z,14.40
2017-04-21T09:19:41.337Z,14.60
2017-04-21T09:20:41.289Z,14.80
2017-04-21T09:21:41.208Z,15.00
2017-04-21T09:22:40.384Z,15.00
2017-04-21T09:23:39.520Z,15.00
2017-04-21T09:24:38.717Z,14.90
2017-04-21T09:25:37.951Z,14.70
2017-04-21T09:26:37.206Z,14.80
2017-04-21T09:27:36.363Z,14.60
2017-04-21T09:28:35.545Z,14.60
2017-04-21T09:29:35.452Z,14.50
2017-04-21T09:30:35.382Z,14.70
2017-04-21T09:31:34.749Z,14.80
2017-04-21T09:32:33.906Z,14.70
2017-04-21T09:34:17.546Z,14.70
2017-04-21T09:34:32.270Z,14.70
2017-04-21T09:35:34.399Z,14.70
2017-04-21T09:36:30.689Z,14.70
2017-04-21T09:37:29.884Z,14.60
2017-04-21T09:38:29.044Z,14.50
2017-04-21T09:39:28.577Z,14.50
2017-04-21T09:40:28.068Z,14.50
2017-04-21T09:41:27.180Z,14.70
2017-04-21T09:42:27.325Z,14.80
2017-04-21T09:43:38.641Z,14.90
2017-04-21T09:44:25.717Z,14.70
2017-04-21T09:45:24.889Z,14.60
2017-04-21T09:46:24.056Z,14.50
2017-04-21T09:47:23.209Z,14.30
2017-04-21T09:48:22.404Z,14.40
2017-04-21T09:49:21.570Z,14.10
2017-04-21T09:50:20.733Z,14.20
2017-04-21T09:52:36.403Z,14.00
2017-04-21T09:53:29.551Z,14.10
2017-04-21T09:54:37.879Z,13.90
2017-04-21T09:57:22.647Z,14.00
2017-04-21T09:59:23.437Z,14.10
2017-04-21T09:59:56.064Z,14.00
2017-04-21T10:00:15.717Z,14.00
2017-04-21T10:00:46.200Z,14.00
2017-04-21T10:03:46.857Z,13.70
2017-04-21T10:04:43.998Z,13.70
2017-04-21T10:06:03.016Z,13.90
2017-04-21T10:06:16.478Z,13.70
2017-04-21T10:06:19.761Z,13.80
2017-04-21T10:07:47.247Z,13.70
2017-04-21T10:08:21.616Z,13.80
2017-04-21T10:08:21.618Z,13.70
2017-04-21T10:08:22.016Z,13.70
2017-04-21T10:08:26.490Z,13.70
2017-04-21T10:09:35.889Z,13.80
2017-04-21T10:10:35.109Z,13.80
2017-04-21T10:11:34.324Z,13.80
2017-04-21T10:12:33.907Z,13.90
2017-04-21T10:13:33.100Z,13.80
2017-04-21T10:14:32.585Z,13.70
2017-04-21T10:15:31.801Z,13.80
2017-04-21T10:16:31.696Z,13.80
2017-04-21T10:17:31.783Z,13.80
2017-04-21T10:18:31.107Z,13.90
2017-04-21T10:19:30.353Z,13.90
2017-04-21T10:20:29.506Z,14.00
2017-04-21T10:21:28.717Z,14.10
2017-04-21T10:22:27.952Z,14.20
2017-04-21T10:23:27.171Z,14.30
2017-04-21T10:24:26.340Z,14.50
2017-04-21T10:25:25.517Z,14.70
2017-04-21T10:26:25.661Z,14.70
2017-04-21T10:27:24.941Z,14.80
2017-04-21T10:28:24.107Z,14.70
2017-04-21T10:29:24.097Z,14.70
2017-04-21T10:30:24.119Z,14.70
2017-04-21T10:31:23.979Z,14.80
2017-04-21T10:32:24.247Z,14.80
2017-04-21T10:33:23.437Z,14.80
2017-04-21T10:34:22.668Z,14.90
2017-04-21T10:35:21.852Z,14.80
2017-04-21T10:36:21.013Z,14.90
2017-04-21T10:37:20.304Z,14.90
2017-04-21T10:38:19.805Z,14.80
2017-04-21T10:39:18.989Z,14.80
2017-04-21T10:40:18.193Z,14.80
2017-04-21T10:41:17.640Z,14.90
2017-04-21T10:42:17.102Z,15.10
2017-04-21T10:43:16.508Z,15.10
2017-04-21T10:44:15.835Z,15.00
2017-04-21T10:45:15.154Z,14.90
2017-04-21T10:46:14.354Z,14.90
2017-04-21T10:47:14.875Z,14.90
2017-04-21T10:48:15.553Z,14.80
2017-04-21T10:49:14.962Z,14.80
2017-04-21T10:50:14.442Z,14.70
2017-04-21T10:51:13.711Z,14.70
2017-04-21T10:52:13.785Z,14.70
2017-04-21T10:53:13.117Z,14.70
2017-04-21T10:54:12.968Z,14.80
2017-04-21T10:55:12.330Z,14.80
2017-04-21T10:56:11.628Z,14.70
2017-04-21T10:57:10.894Z,14.60
2017-04-21T10:58:10.177Z,14.60
2017-04-21T10:59:09.525Z,14.50
2017-04-21T11:00:09.926Z,14.50
2017-04-21T11:01:09.228Z,14.60
2017-04-21T11:02:08.926Z,14.50
2017-04-21T11:04:08.075Z,14.80
2017-04-21T11:05:07.577Z,14.80
2017-04-21T11:06:07.089Z,14.70
2017-04-21T11:07:06.445Z,14.70
2017-04-21T11:08:06.131Z,14.60
2017-04-21T11:09:05.541Z,14.60
2017-04-21T11:10:05.242Z,14.40
2017-04-21T11:11:04.569Z,14.40
2017-04-21T11:12:03.841Z,14.30
2017-04-21T11:13:03.241Z,14.30
2017-04-21T11:14:03.167Z,14.20
2017-04-21T11:15:02.496Z,14.20
2017-04-21T11:16:02.802Z,14.20
2017-04-21T11:17:02.045Z,14.30
2017-04-21T11:19:00.937Z,14.30
2017-04-21T11:20:01.504Z,14.30
2017-04-21T11:21:01.413Z,14.40
2017-04-21T11:22:01.478Z,14.50
2017-04-21T11:23:00.837Z,14.50
2017-04-21T11:24:00.044Z,14.60
2017-04-21T11:24:59.368Z,14.50
2017-04-21T11:25:59.067Z,14.60
2017-04-21T11:26:58.383Z,14.60
2017-04-21T11:27:57.724Z,14.80
2017-04-21T11:28:56.972Z,14.80
2017-04-21T11:29:56.221Z,14.80
2017-04-21T11:30:56.797Z,14.70
2017-04-21T11:31:56.911Z,14.60
2017-04-21T11:32:56.248Z,14.40
2017-04-21T11:33:55.653Z,14.40
2017-04-21T11:34:55.509Z,14.30
2017-04-21T11:35:54.783Z,14.30
2017-04-21T11:36:54.645Z,14.20
2017-04-21T11:37:53.960Z,14.20
2017-04-21T11:38:53.196Z,14.10
2017-04-21T11:40:51.876Z,14.00
2017-04-21T11:41:51.144Z,13.90
2017-04-21T11:42:50.516Z,13.90
2017-04-21T11:43:50.496Z,13.80
2017-04-21T11:44:49.705Z,13.70
2017-04-21T11:45:49.172Z,13.60
2017-04-21T11:46:48.493Z,13.60
2017-04-21T11:47:48.435Z,13.60
2017-04-21T11:48:48.714Z,13.60
2017-04-21T11:49:48.408Z,13.60
2017-04-21T11:50:47.849Z,13.60
2017-04-21T11:51:47.157Z,13.50
2017-04-21T11:52:47.272Z,13.40
2017-04-21T11:53:46.729Z,13.50
2017-04-21T11:54:45.983Z,13.50
2017-04-21T11:55:46.368Z,13.50
2017-04-21T11:56:46.408Z,13.50
2017-04-21T11:57:45.678Z,13.50
2017-04-21T11:58:44.980Z,13.50
2017-04-21T11:59:44.323Z,13.60
2017-04-21T12:00:44.360Z,13.60
2017-04-21T12:01:43.639Z,13.70
2017-04-21T12:02:43.554Z,13.70
2017-04-21T12:03:44.204Z,13.90
2017-04-21T12:04:43.408Z,14.10
2017-04-21T12:05:42.718Z,14.30
2017-04-21T12:06:42.009Z,14.50
2017-04-21T12:07:41.296Z,14.80
2017-04-21T12:08:41.157Z,15.00
2017-04-21T12:09:41.252Z,15.40
2017-04-21T12:10:40.500Z,15.40
2017-04-21T12:11:39.780Z,15.40
2017-04-21T12:12:39.032Z,15.40
2017-04-21T12:13:38.375Z,15.40
2017-04-21T12:14:37.705Z,15.40
2017-04-21T12:15:37.243Z,15.40
2017-04-21T12:16:36.761Z,15.40
2017-04-21T12:17:35.998Z,15.40
2017-04-21T12:18:35.248Z,15.30
2017-04-21T12:19:34.461Z,15.20
2017-04-21T12:20:34.317Z,15.00
2017-04-21T12:21:33.649Z,14.80
2017-04-21T12:22:36.668Z,14.60
2017-04-21T12:23:36.911Z,14.50
2017-04-21T12:24:38.534Z,14.50
2017-04-21T12:25:40.143Z,14.50
2017-04-21T12:27:44.692Z,14.30
2017-04-21T12:28:43.943Z,14.20
2017-04-21T12:29:44.697Z,14.10
2017-04-21T12:30:44.941Z,14.00
2017-04-21T12:31:46.501Z,14.00
2017-04-21T12:32:46.518Z,13.90
2017-04-21T12:33:45.820Z,13.90
2017-04-21T12:34:45.113Z,13.90
2017-04-21T12:35:44.442Z,13.80
2017-04-21T12:36:43.612Z,13.80
2017-04-21T12:37:43.643Z,13.70
2017-04-21T12:38:42.802Z,13.70
2017-04-21T12:39:41.997Z,13.70
2017-04-21T12:40:41.201Z,13.60
2017-04-21T12:41:40.393Z,13.60
2017-04-21T12:42:39.558Z,13.60
2017-04-21T12:43:38.765Z,13.60
2017-04-21T12:44:37.912Z,13.70
2017-04-21T12:45:37.123Z,13.80
2017-04-21T12:46:36.324Z,13.90
2017-04-21T12:47:35.636Z,14.00
2017-04-21T12:48:35.871Z,14.10
2017-04-21T12:49:35.058Z,14.20
2017-04-21T12:50:34.179Z,14.30
2017-04-21T12:51:33.342Z,14.30
2017-04-21T12:52:32.565Z,14.20
2017-04-21T12:53:31.727Z,14.30
2017-04-21T12:54:30.888Z,14.40
2017-04-21T12:55:30.089Z,14.20
2017-04-21T12:56:29.460Z,14.20
2017-04-21T12:58:35.667Z,14.20
2017-04-21T12:59:34.868Z,14.20
2017-04-21T13:00:34.048Z,14.20
2017-04-21T13:01:33.224Z,14.10
2017-04-21T13:02:32.899Z,14.00
2017-04-21T13:03:32.381Z,14.00
2017-04-21T13:04:31.579Z,14.00
2017-04-21T13:05:30.744Z,14.00
2017-04-21T13:06:30.664Z,13.90
2017-04-21T13:07:29.832Z,14.00
2017-04-21T13:08:29.713Z,13.90
2017-04-21T13:09:29.048Z,13.90